Time;durP1;ratioP1;P1;durP2;ratioP2;P2;SDS_P1;SDS_P2;PMS_P1;PMS_P2;Temp;Humidity;BMP_temperature;BMP_pressure;BME280_temperature;BME280_humidity;BME280_pressure;Samples;Min_cycle;Max_cycle;Signal;HPM_P1;HPM_P2
2023/05/02 00:01:01;;;;;;;10.52;6.60;;;;;;;11.27;84.11;101601.91;5009848;28;20507;-45
2023/05/02 00:03:27;;;;;;;14.90;8.32;;;;;;;11.25;84.20;101605.00;5009568;28;20483;-51
2023/05/02 00:05:54;;;;;;;14.13;8.18;;;;;;;11.24;84.20;101600.63;5024865;28;20049;-44
2023/05/02 00:08:21;;;;;;;18.70;9.02;;;;;;;11.23;84.25;101601.75;5002802;28;20444;-45
2023/05/02 00:10:48;;;;;;;12.27;6.95;;;;;;;11.16;84.54;101606.97;5001737;28;20142;-45
2023/05/02 00:13:14;;;;;;;11.50;5.22;;;;;;;11.07;84.82;101606.16;5007937;28;20050;-45
2023/05/02 00:15:41;;;;;;;9.60;5.95;;;;;;;10.98;84.96;101610.91;5010352;28;20483;-44
2023/05/02 00:18:08;;;;;;;9.43;4.95;;;;;;;10.93;85.07;101611.09;5009422;28;20161;-46
2023/05/02 00:20:35;;;;;;;7.82;3.70;;;;;;;10.91;85.40;101616.94;5001893;28;20049;-49
2023/05/02 00:23:02;;;;;;;7.25;3.33;;;;;;;10.94;85.62;101615.47;5007894;28;20164;-45
2023/05/02 00:25:29;;;;;;;8.50;3.80;;;;;;;10.94;85.52;101612.69;5002215;28;20034;-44
2023/05/02 00:27:55;;;;;;;4.53;2.38;;;;;;;10.93;85.76;101609.09;4991535;28;20054;-45
2023/05/02 00:30:22;;;;;;;3.00;2.22;;;;;;;10.93;85.90;101611.09;5009373;28;20192;-44
2023/05/02 00:32:49;;;;;;;5.40;2.17;;;;;;;10.92;85.87;101618.56;5008516;28;20093;-45
2023/05/02 00:35:15;;;;;;;6.60;2.05;;;;;;;10.91;86.07;101614.16;5009279;28;20052;-45
2023/05/02 00:37:42;;;;;;;11.57;2.03;;;;;;;10.91;86.37;101627.19;5009159;28;20041;-44
2023/05/02 00:40:09;;;;;;;7.53;2.03;;;;;;;10.88;86.28;101614.03;5008984;28;20060;-49
2023/05/02 00:42:36;;;;;;;5.07;1.92;;;;;;;10.86;86.38;101616.28;5001269;28;20046;-44
2023/05/02 00:45:05;;;;;;;2.92;1.20;;;;;;;10.83;86.51;101614.97;5008872;28;20104;-44
2023/05/02 00:47:32;;;;;;;8.15;1.95;;;;;;;10.84;86.75;101627.69;4991471;28;20064;-47
2023/05/02 00:50:00;;;;;;;7.22;1.90;;;;;;;10.87;86.71;101620.69;5009556;28;20046;-45
2023/05/02 00:52:28;;;;;;;8.38;1.88;;;;;;;10.88;86.67;101625.88;5006518;28;20045;-46
2023/05/02 00:54:55;;;;;;;6.68;2.60;;;;;;;10.90;86.85;101634.72;5001174;28;20472;-44
2023/05/02 00:57:22;;;;;;;7.25;2.13;;;;;;;10.94;86.81;101621.00;4991152;28;20076;-44
2023/05/02 00:59:50;;;;;;;5.78;2.58;;;;;;;10.98;86.85;101622.00;4991353;28;20050;-44
2023/05/02 01:02:42;;;;;;;6.80;2.30;;;;;;;10.97;86.89;101623.94;5008717;28;20072;-44
2023/05/02 01:05:19;;;;;;;13.18;3.17;;;;;;;10.97;86.62;101625.91;5009523;28;20368;-45
2023/05/02 01:08:04;;;;;;;15.02;3.10;;;;;;;10.92;86.77;101628.84;5007082;28;20069;-44
2023/05/02 01:10:39;;;;;;;6.32;3.03;;;;;;;10.92;87.01;101623.28;5001835;28;20166;-44
2023/05/02 01:13:27;;;;;;;14.77;3.28;;;;;;;10.90;87.00;101622.81;5012878;28;20054;-46
2023/05/02 01:15:57;;;;;;;6.68;3.03;;;;;;;10.89;87.04;101619.22;5004566;28;20144;-48
2023/05/02 01:18:29;;;;;;;13.95;3.80;;;;;;;10.90;86.97;101631.13;5012863;28;20049;-47
2023/05/02 01:21:00;;;;;;;14.02;2.63;;;;;;;10.88;87.12;101622.34;5003259;28;20033;-44
2023/05/02 01:24:01;;;;;;;7.57;3.10;;;;;;;10.88;87.42;101623.13;5004604;28;20046;-44
2023/05/02 01:26:51;;;;;;;5.25;2.65;;;;;;;10.91;87.23;101627.19;4994508;28;20527;-46
2023/05/02 01:29:20;;;;;;;8.80;3.22;;;;;;;10.95;87.29;101628.19;5010136;28;20061;-44
2023/05/02 01:31:50;;;;;;;12.20;2.75;;;;;;;10.97;87.16;101631.44;5012662;28;20494;-46
2023/05/02 01:34:20;;;;;;;8.80;2.78;;;;;;;10.97;87.07;101625.91;5012087;28;20049;-45
2023/05/02 01:36:49;;;;;;;8.32;2.38;;;;;;;10.97;87.30;101636.97;5010925;28;20503;-44
2023/05/02 01:39:19;;;;;;;13.38;3.90;;;;;;;10.99;87.40;101641.06;5013264;28;20045;-45
2023/05/02 01:41:53;;;;;;;4.93;1.95;;;;;;;11.01;87.29;101633.22;5012768;28;20061;-44
2023/05/02 01:44:22;;;;;;;12.75;2.55;;;;;;;10.99;87.26;101634.69;5000210;28;20096;-46
2023/05/02 01:46:50;;;;;;;7.40;2.35;;;;;;;10.97;87.46;101631.44;4993563;28;20132;-46
2023/05/02 01:49:18;;;;;;;8.43;2.55;;;;;;;10.92;87.40;101635.19;5011036;28;20053;-44
2023/05/02 01:51:47;;;;;;;4.03;1.58;;;;;;;10.90;87.52;101625.59;5008815;28;20055;-50
2023/05/02 01:54:16;;;;;;;7.40;1.63;;;;;;;10.90;87.28;101633.91;5005544;28;20041;-44
2023/05/02 01:56:44;;;;;;;8.68;1.98;;;;;;;10.88;87.36;101627.88;4978463;28;20058;-46
2023/05/02 01:59:15;;;;;;;8.15;1.90;;;;;;;10.85;87.42;101628.53;4991341;28;20052;-46
2023/05/02 02:01:43;;;;;;;9.30;1.90;;;;;;;10.83;87.30;101626.06;5010623;28;20061;-45
2023/05/02 02:04:13;;;;;;;6.93;1.58;;;;;;;10.79;87.28;101629.81;5012653;28;20048;-46
2023/05/02 02:06:45;;;;;;;7.57;2.05;;;;;;;10.77;87.18;101632.91;5010194;28;20461;-43
2023/05/02 02:09:13;;;;;;;6.75;2.40;;;;;;;10.76;87.18;101628.50;5011818;28;20054;-44
2023/05/02 02:12:03;;;;;;;10.82;2.00;;;;;;;10.75;87.25;101631.63;5011901;28;20046;-43
2023/05/02 02:14:35;;;;;;;7.53;2.30;;;;;;;10.72;86.98;101635.81;5012705;28;20073;-44
2023/05/02 02:17:12;;;;;;;5.78;1.83;;;;;;;10.72;87.20;101640.56;5012393;28;20058;-44
2023/05/02 02:19:40;;;;;;;9.65;3.58;;;;;;;10.72;87.10;101644.13;5012168;28;20542;-43
2023/05/02 02:22:08;;;;;;;11.30;2.38;;;;;;;10.74;87.29;101646.59;5008163;28;20050;-45
2023/05/02 02:24:38;;;;;;;8.07;1.70;;;;;;;10.74;87.26;101641.06;4993903;28;20049;-44
2023/05/02 02:27:04;;;;;;;4.68;2.63;;;;;;;10.75;87.34;101639.94;5011489;28;20053;-49
2023/05/02 02:29:31;;;;;;;8.13;2.42;;;;;;;10.73;87.25;101631.09;5011707;28;20141;-46
2023/05/02 02:31:58;;;;;;;7.10;2.85;;;;;;;10.71;87.19;101641.69;5012007;28;20056;-45
2023/05/02 02:34:25;;;;;;;11.95;2.55;;;;;;;10.69;87.30;101641.22;5026262;28;20054;-45
2023/05/02 02:37:07;;;;;;;8.15;3.85;;;;;;;10.72;87.35;101640.56;5009556;28;20062;-47
2023/05/02 02:39:34;;;;;;;10.82;3.22;;;;;;;10.73;87.25;101645.78;4999516;28;20037;-46
2023/05/02 02:42:04;;;;;;;7.22;2.97;;;;;;;10.73;87.50;101639.41;5011208;28;20046;-46
2023/05/02 02:44:45;;;;;;;23.20;5.80;;;;;;;10.76;87.50;101647.06;5011088;28;20454;-44
2023/05/02 02:47:56;;;;;;;12.43;2.28;;;;;;;10.77;87.60;101654.25;5011612;28;20084;-51
2023/05/02 02:50:31;;;;;;;7.93;1.95;;;;;;;10.77;87.32;101651.47;4954683;28;20549;-44
2023/05/02 02:53:03;;;;;;;6.78;1.98;;;;;;;10.76;87.33;101655.38;5010967;28;20687;-46
2023/05/02 02:55:39;;;;;;;5.00;1.63;;;;;;;10.72;87.34;101652.44;5007169;28;20038;-46
2023/05/02 02:58:17;;;;;;;6.75;2.05;;;;;;;10.70;87.55;101651.13;5006817;28;20121;-47
2023/05/02 03:00:45;;;;;;;2.85;1.63;;;;;;;10.71;87.44;101650.81;5025821;23;20115;-44
2023/05/02 03:03:16;;;;;;;5.18;2.10;;;;;;;10.68;87.17;101651.47;4988586;28;20062;-45
2023/05/02 03:05:44;;;;;;;6.85;2.00;;;;;;;10.66;87.26;101650.16;4986723;28;20075;-47
2023/05/02 03:08:12;;;;;;;4.57;1.45;;;;;;;10.64;87.13;101646.91;4990871;28;20056;-46
2023/05/02 03:10:39;;;;;;;9.65;2.17;;;;;;;10.62;87.43;101651.94;4970747;28;20065;-44
2023/05/02 03:13:06;;;;;;;14.23;3.00;;;;;;;10.60;87.28;101643.97;4986348;28;20050;-44
2023/05/02 03:16:05;;;;;;;8.57;2.40;;;;;;;10.56;87.37;101656.03;4986732;28;20042;-43
2023/05/02 03:18:32;;;;;;;5.90;2.58;;;;;;;10.54;87.22;101661.84;4990530;28;20107;-44
2023/05/02 03:20:59;;;;;;;13.60;2.42;;;;;;;10.54;87.22;101650.00;4988452;28;20050;-47
2023/05/02 03:23:26;;;;;;;8.10;2.08;;;;;;;10.51;87.32;101645.09;4988066;28;20133;-44
2023/05/02 03:25:53;;;;;;;6.63;2.33;;;;;;;10.50;87.40;101649.00;4980963;28;20078;-44
2023/05/02 03:28:20;;;;;;;5.38;1.80;;;;;;;10.49;87.32;101658.44;4977874;28;20463;-43
2023/05/02 03:30:46;;;;;;;5.55;2.40;;;;;;;10.47;87.56;101644.09;4986967;28;20137;-44
2023/05/02 03:33:13;;;;;;;7.07;2.28;;;;;;;10.45;87.63;101657.44;4990734;28;20070;-44
2023/05/02 03:35:41;;;;;;;5.63;2.03;;;;;;;10.45;87.76;101651.91;4987616;28;20078;-44
2023/05/02 03:38:08;;;;;;;7.03;2.58;;;;;;;10.43;87.72;101648.66;4989781;28;20412;-44
2023/05/02 03:40:35;;;;;;;8.95;2.40;;;;;;;10.44;87.87;101644.75;4983875;28;20042;-49
2023/05/02 03:43:01;;;;;;;7.13;2.47;;;;;;;10.44;87.69;101651.09;4987038;28;20038;-47
2023/05/02 03:45:28;;;;;;;10.88;3.50;;;;;;;10.42;87.84;101636.75;4984842;28;20066;-44
2023/05/02 03:47:55;;;;;;;7.40;2.53;;;;;;;10.46;87.92;101637.75;4987865;28;20132;-44
2023/05/02 03:50:22;;;;;;;7.22;2.28;;;;;;;10.48;88.03;101629.94;4988027;28;20050;-44
2023/05/02 03:52:49;;;;;;;9.73;2.15;;;;;;;10.50;88.08;101629.63;4989362;28;20049;-44
2023/05/02 03:55:16;;;;;;;5.53;2.22;;;;;;;10.52;88.10;101624.56;4981670;28;20073;-44
2023/05/02 03:57:42;;;;;;;6.38;2.28;;;;;;;10.50;88.11;101624.91;4987573;28;20042;-45
2023/05/02 04:00:10;;;;;;;5.90;2.10;;;;;;;10.49;87.99;101636.28;4989982;28;20451;-43
2023/05/02 04:02:36;;;;;;;5.63;2.20;;;;;;;10.46;87.94;101636.94;5006276;28;20093;-44
2023/05/02 04:05:04;;;;;;;6.90;1.83;;;;;;;10.49;88.14;101634.31;5008630;28;20061;-46
2023/05/02 04:07:31;;;;;;;12.40;3.17;;;;;;;10.55;88.01;101646.06;5009930;28;20450;-44
2023/05/02 04:09:57;;;;;;;9.15;2.20;;;;;;;10.58;88.05;101650.97;5007114;28;20045;-43
2023/05/02 04:12:25;;;;;;;10.60;2.17;;;;;;;10.57;88.08;101652.09;5006375;28;20038;-44
2023/05/02 04:14:51;;;;;;;7.88;3.20;;;;;;;10.57;88.04;101657.63;5004659;28;20121;-44
2023/05/02 04:17:19;;;;;;;10.77;2.15;;;;;;;10.56;88.12;101643.00;5008865;28;20060;-44
2023/05/02 04:19:46;;;;;;;8.18;2.25;;;;;;;10.55;88.19;101651.59;5005488;28;20069;-44
2023/05/02 04:22:13;;;;;;;10.13;2.10;;;;;;;10.53;88.21;101642.81;4988939;28;20207;-44
2023/05/02 04:24:39;;;;;;;4.82;2.05;;;;;;;10.51;87.91;101634.81;5007252;28;20510;-49
2023/05/02 04:27:06;;;;;;;6.18;2.10;;;;;;;10.51;88.17;101639.56;4990612;28;20060;-43
2023/05/02 04:29:33;;;;;;;4.55;2.83;;;;;;;10.50;88.12;101637.91;5005261;28;20438;-44
2023/05/02 04:32:00;;;;;;;4.65;1.75;;;;;;;10.51;88.18;101640.34;5003460;28;20046;-44
2023/05/02 04:34:27;;;;;;;11.95;1.73;;;;;;;10.50;88.34;101638.75;5008035;28;20116;-43
2023/05/02 04:36:53;;;;;;;14.68;3.00;;;;;;;10.52;88.40;101636.47;5008178;28;20057;-44
2023/05/02 04:39:20;;;;;;;6.28;1.90;;;;;;;10.51;88.40;101636.78;5008677;28;20041;-44
2023/05/02 04:41:47;;;;;;;5.13;2.20;;;;;;;10.51;88.27;101634.03;5006979;28;20038;-43
2023/05/02 04:44:14;;;;;;;6.90;2.22;;;;;;;10.51;88.34;101636.78;5007214;28;20052;-44
2023/05/02 04:46:40;;;;;;;15.32;4.18;;;;;;;10.53;88.30;101631.75;5006544;28;20054;-44
2023/05/02 04:49:09;;;;;;;12.85;2.40;;;;;;;10.52;88.35;101635.63;4997644;28;20069;-46
2023/05/02 04:51:35;;;;;;;4.72;1.73;;;;;;;10.53;88.36;101629.78;5007376;28;20045;-44
2023/05/02 04:54:02;;;;;;;10.80;2.22;;;;;;;10.54;88.31;101636.16;5008146;28;20136;-43
2023/05/02 04:56:29;;;;;;;12.13;2.67;;;;;;;10.55;88.44;101640.53;4994950;28;20088;-51
2023/05/02 04:58:55;;;;;;;5.85;2.45;;;;;;;10.55;88.42;101640.53;5007910;28;20054;-50
2023/05/02 05:01:23;;;;;;;5.82;2.83;;;;;;;10.58;88.37;101645.44;5004236;28;20112;-45
2023/05/02 05:03:50;;;;;;;11.13;2.10;;;;;;;10.57;88.45;101643.78;5004651;28;20395;-45
2023/05/02 05:06:18;;;;;;;11.85;2.72;;;;;;;10.60;88.67;101640.38;5005320;28;20050;-43
2023/05/02 05:08:45;;;;;;;9.13;3.60;;;;;;;10.61;88.58;101630.94;4971546;28;20050;-45
2023/05/02 05:11:12;;;;;;;4.38;1.80;;;;;;;10.62;88.61;101643.63;5001822;28;20034;-48
2023/05/02 05:13:38;;;;;;;4.53;1.80;;;;;;;10.60;88.75;101643.13;5024102;28;20065;-44
2023/05/02 05:16:05;;;;;;;9.30;2.40;;;;;;;10.63;88.83;101656.34;5004942;28;20048;-46
2023/05/02 05:18:39;;;;;;;5.00;1.88;;;;;;;10.65;88.74;101656.81;5008031;28;20494;-51
2023/05/02 05:21:07;;;;;;;9.90;2.70;;;;;;;10.67;88.81;101657.34;5003710;28;20566;-43
2023/05/02 05:23:34;;;;;;;11.32;2.58;;;;;;;10.69;88.91;101657.81;5009091;28;20446;-46
2023/05/02 05:26:12;;;;;;;6.47;1.88;;;;;;;10.71;88.77;101663.84;5006255;28;20084;-48
2023/05/02 05:28:38;;;;;;;6.68;2.40;;;;;;;10.73;88.67;101669.88;5008776;28;20045;-45
2023/05/02 05:31:06;;;;;;;4.70;1.92;;;;;;;10.74;88.78;101660.44;5002558;28;20057;-45
2023/05/02 05:33:34;;;;;;;5.47;2.30;;;;;;;10.73;88.72;101672.66;4998572;28;20037;-47
2023/05/02 05:36:05;;;;;;;8.70;2.15;;;;;;;10.74;88.81;101665.97;4990264;28;20391;-44
2023/05/02 05:38:33;;;;;;;7.30;2.30;;;;;;;10.74;88.74;101672.34;4999772;28;20125;-47
2023/05/02 05:41:00;;;;;;;14.57;2.42;;;;;;;10.74;88.67;101675.09;4987555;28;20050;-43
2023/05/02 05:43:27;;;;;;;5.43;2.13;;;;;;;10.74;88.70;101675.09;5002358;28;20056;-48
2023/05/02 05:45:55;;;;;;;9.18;2.22;;;;;;;10.72;88.87;101666.28;5008712;28;20088;-44
2023/05/02 05:48:22;;;;;;;11.60;2.65;;;;;;;10.74;88.92;101660.44;5021929;28;20046;-44
2023/05/02 05:50:50;;;;;;;10.45;2.72;;;;;;;10.78;88.90;101672.47;5008428;28;20042;-43
2023/05/02 05:53:18;;;;;;;8.13;1.60;;;;;;;10.78;88.89;101662.22;5008324;28;20046;-44
2023/05/02 05:55:45;;;;;;;9.65;2.75;;;;;;;10.80;88.79;101659.16;5010399;28;20050;-53
2023/05/02 05:58:12;;;;;;;9.45;1.73;;;;;;;10.78;88.76;101651.16;5011343;28;20049;-44
2023/05/02 06:00:39;;;;;;;11.18;2.38;;;;;;;10.79;88.52;101660.28;5027008;28;20064;-44
2023/05/02 06:03:06;;;;;;;8.82;2.38;;;;;;;10.76;88.70;101653.44;5011806;28;20149;-44
2023/05/02 06:05:35;;;;;;;10.05;2.47;;;;;;;10.74;88.77;101661.25;5012275;28;20045;-43
2023/05/02 06:08:02;;;;;;;7.50;2.20;;;;;;;10.74;88.87;101655.72;5011626;28;20149;-45
2023/05/02 06:10:30;;;;;;;8.35;2.92;;;;;;;10.77;88.88;101654.25;5003939;28;20050;-47
2023/05/02 06:12:58;;;;;;;6.68;2.47;;;;;;;10.76;88.66;101656.22;4991139;28;20140;-46
2023/05/02 06:15:24;;;;;;;4.05;2.15;;;;;;;10.81;88.68;101666.31;5012235;28;20076;-44
2023/05/02 06:17:52;;;;;;;21.33;3.17;;;;;;;10.86;88.56;101664.19;5018538;28;20085;-50
2023/05/02 06:20:19;;;;;;;5.63;2.35;;;;;;;10.91;88.67;101661.25;5031230;28;20540;-43
2023/05/02 06:22:46;;;;;;;10.13;2.58;;;;;;;10.95;88.58;101656.72;5018170;28;20137;-44
2023/05/02 06:25:12;;;;;;;5.43;1.90;;;;;;;11.00;88.62;101658.50;5012596;28;20049;-44
2023/05/02 06:27:39;;;;;;;4.47;2.30;;;;;;;11.05;88.47;101658.34;5001915;28;20078;-44
2023/05/02 06:30:07;;;;;;;9.95;2.05;;;;;;;11.11;88.57;101659.00;5023075;28;20058;-43
2023/05/02 06:32:33;;;;;;;3.63;2.15;;;;;;;11.17;88.37;101664.06;5006590;28;20406;-44
2023/05/02 06:35:00;;;;;;;5.93;1.90;;;;;;;11.21;88.39;101661.41;5006954;28;20042;-48
2023/05/02 06:37:31;;;;;;;6.45;2.67;;;;;;;11.29;88.34;101669.75;5007856;28;20049;-44
2023/05/02 06:39:58;;;;;;;6.00;2.75;;;;;;;11.36;88.40;101661.72;5008500;28;20125;-43
2023/05/02 06:42:25;;;;;;;6.25;1.95;;;;;;;11.42;88.39;101665.97;5008877;28;20133;-46
2023/05/02 06:44:51;;;;;;;9.30;2.05;;;;;;;11.53;88.30;101661.72;5011533;28;20293;-46
2023/05/02 06:47:18;;;;;;;6.80;2.38;;;;;;;11.66;88.27;101670.16;5030390;28;20037;-50
2023/05/02 06:49:45;;;;;;;4.95;2.45;;;;;;;11.73;88.16;101670.53;5031042;28;20494;-43
2023/05/02 06:52:12;;;;;;;8.10;2.58;;;;;;;11.76;88.14;101670.66;5031022;28;20564;-44
2023/05/02 06:54:41;;;;;;;6.13;1.95;;;;;;;11.78;88.36;101673.13;5024561;28;20049;-44
2023/05/02 06:57:08;;;;;;;4.80;3.03;;;;;;;11.74;87.92;101675.72;5008684;28;20029;-44
2023/05/02 06:59:35;;;;;;;15.98;2.92;;;;;;;11.72;88.00;101668.88;5011164;28;20104;-43
2023/05/02 07:02:01;;;;;;;9.13;2.45;;;;;;;11.71;87.86;101664.47;5011297;28;20521;-44
2023/05/02 07:04:31;;;;;;;7.45;2.90;;;;;;;11.69;87.77;101666.75;5011320;28;20827;-48
2023/05/02 07:06:57;;;;;;;3.75;2.47;;;;;;;11.75;88.00;101677.38;4973428;28;20042;-43
2023/05/02 07:09:24;;;;;;;5.97;3.22;;;;;;;11.86;88.02;101669.50;5004316;28;20137;-44
2023/05/02 07:11:51;;;;;;;13.07;3.92;;;;;;;11.97;87.78;101667.97;5007814;28;20561;-44
2023/05/02 07:14:18;;;;;;;8.73;3.60;;;;;;;12.05;87.61;101678.22;5010923;28;20426;-43
2023/05/02 07:16:44;;;;;;;8.70;3.55;;;;;;;12.13;87.85;101671.81;5010370;28;20038;-44
2023/05/02 07:19:11;;;;;;;7.55;2.83;;;;;;;12.19;87.81;101667.72;5013563;28;20524;-46
2023/05/02 07:21:38;;;;;;;5.97;2.50;;;;;;;12.20;87.61;101667.38;5030514;28;20041;-45
2023/05/02 07:24:05;;;;;;;6.65;2.33;;;;;;;12.21;87.59;101659.88;5014646;28;20049;-46
2023/05/02 07:26:32;;;;;;;7.65;3.58;;;;;;;12.23;87.59;101663.16;5010393;28;20042;-46
2023/05/02 07:28:59;;;;;;;5.90;2.78;;;;;;;12.28;87.46;101674.06;5010553;28;20089;-44
2023/05/02 07:31:27;;;;;;;12.52;3.22;;;;;;;12.32;87.47;101677.78;5002093;28;20045;-44
2023/05/02 07:33:53;;;;;;;8.73;3.25;;;;;;;12.35;87.43;101663.25;5009257;28;20049;-45
2023/05/02 07:36:20;;;;;;;11.25;4.35;;;;;;;12.41;87.47;101667.47;5005917;28;20045;-45
2023/05/02 07:38:47;;;;;;;5.38;3.47;;;;;;;12.43;87.36;101670.72;5000824;28;20450;-46
2023/05/02 07:41:14;;;;;;;10.88;4.97;;;;;;;12.44;87.29;101668.75;5006588;28;20054;-46
2023/05/02 07:43:41;;;;;;;10.40;4.70;;;;;;;12.41;87.18;101670.25;5008099;28;20049;-52
2023/05/02 07:46:07;;;;;;;11.05;4.63;;;;;;;12.43;87.19;101667.94;5003416;28;20501;-45
2023/05/02 07:48:34;;;;;;;11.10;4.50;;;;;;;12.44;87.32;101675.13;4988783;28;20052;-44
2023/05/02 07:51:09;;;;;;;12.48;5.53;;;;;;;12.44;87.08;101677.91;4995686;28;20038;-42
2023/05/02 07:53:36;;;;;;;10.73;5.00;;;;;;;12.41;87.16;101681.34;5013450;28;20041;-44
2023/05/02 07:56:05;;;;;;;11.40;5.20;;;;;;;12.40;87.24;101676.94;5014617;28;20081;-45
2023/05/02 07:58:32;;;;;;;8.93;5.75;;;;;;;12.43;87.17;101678.22;5009630;28;20056;-47
2023/05/02 08:01:00;;;;;;;11.32;4.43;;;;;;;12.48;87.27;101676.06;5009613;28;20112;-46
2023/05/02 08:03:26;;;;;;;10.13;4.43;;;;;;;12.46;87.09;101667.28;5008015;28;20065;-48
2023/05/02 08:05:53;;;;;;;5.78;3.95;;;;;;;12.51;87.12;101675.41;5007625;28;20052;-49
2023/05/02 08:08:20;;;;;;;9.20;3.70;;;;;;;12.57;87.09;101695.47;4991438;28;20111;-45
2023/05/02 08:10:50;;;;;;;9.18;4.28;;;;;;;12.57;87.09;101682.41;5005224;28;20049;-45
2023/05/02 08:13:17;;;;;;;8.27;3.67;;;;;;;12.69;87.00;101693.59;4997961;28;20502;-46
2023/05/02 08:15:43;;;;;;;6.25;3.97;;;;;;;12.82;86.81;101689.75;5005149;28;20052;-52
2023/05/02 08:18:10;;;;;;;7.60;4.28;;;;;;;12.93;86.56;101692.13;5007646;28;20112;-46
2023/05/02 08:20:37;;;;;;;6.88;3.67;;;;;;;13.00;86.33;101682.09;4984922;28;20753;-45
2023/05/02 08:23:04;;;;;;;5.55;3.33;;;;;;;13.02;86.25;101685.38;4983424;28;20104;-45
2023/05/02 08:25:32;;;;;;;9.20;5.13;;;;;;;13.60;87.27;101692.72;4982623;28;20060;-52
2023/05/02 08:27:58;;;;;;;7.88;3.53;;;;;;;14.07;86.12;101695.97;4979850;28;20065;-52
2023/05/02 08:30:25;;;;;;;9.90;3.63;;;;;;;14.15;85.89;101694.25;4974794;28;20157;-52
2023/05/02 08:32:52;;;;;;;7.25;3.75;;;;;;;14.51;86.74;101708.22;4981375;28;20295;-46
2023/05/02 08:35:19;;;;;;;6.22;3.55;;;;;;;14.91;86.16;101711.09;4999937;28;20050;-45
2023/05/02 08:37:45;;;;;;;8.20;4.22;;;;;;;15.17;85.29;101715.09;4984256;28;20042;-46
2023/05/02 08:40:13;;;;;;;9.75;3.80;;;;;;;15.05;84.10;101711.53;5001729;28;20124;-48
2023/05/02 08:42:42;;;;;;;6.00;3.83;;;;;;;14.63;83.22;101713.81;4999948;28;20073;-49
2023/05/02 08:45:13;;;;;;;7.18;3.65;;;;;;;14.41;84.00;101719.81;4998886;28;20076;-53
2023/05/02 08:47:42;;;;;;;7.60;4.13;;;;;;;14.32;83.82;101719.94;4998057;28;20454;-45
2023/05/02 08:50:10;;;;;;;12.45;4.97;;;;;;;14.36;84.15;101722.84;4997372;28;20060;-49
2023/05/02 08:52:37;;;;;;;10.27;4.20;;;;;;;14.42;83.41;101727.84;4995952;28;20046;-49
2023/05/02 08:55:06;;;;;;;13.50;6.50;;;;;;;14.55;83.30;101726.69;4979464;28;20876;-51
2023/05/02 08:57:33;;;;;;;6.50;4.10;;;;;;;14.62;82.57;101732.50;4982583;28;20132;-48
2023/05/02 09:00:00;;;;;;;6.15;3.67;;;;;;;14.61;82.25;101730.06;4989671;28;20076;-45
2023/05/02 09:02:48;;;;;;;7.93;4.38;;;;;;;14.54;82.37;101725.06;4995931;28;20066;-46
2023/05/02 09:05:19;;;;;;;9.43;4.50;;;;;;;14.68;82.39;101721.94;5001564;28;20399;-45
2023/05/02 09:07:48;;;;;;;8.05;4.10;;;;;;;14.94;81.76;101722.34;5001279;28;20073;-51
2023/05/02 09:10:14;;;;;;;9.73;4.38;;;;;;;15.12;81.26;101732.09;5001200;28;20132;-46
2023/05/02 09:12:41;;;;;;;8.32;5.97;;;;;;;15.22;80.90;101728.78;4999365;28;20049;-46
2023/05/02 09:15:10;;;;;;;10.20;4.32;;;;;;;15.36;80.22;101722.84;4999164;28;20060;-46
2023/05/02 09:17:44;;;;;;;9.68;4.35;;;;;;;15.29;80.21;101730.19;4995992;28;20716;-49
2023/05/02 09:20:13;;;;;;;12.80;4.35;;;;;;;15.16;79.91;101730.22;5003013;28;20046;-46
2023/05/02 09:22:51;;;;;;;7.80;4.40;;;;;;;15.13;80.19;101724.53;5000589;28;20140;-45
2023/05/02 09:25:21;;;;;;;11.38;5.05;;;;;;;15.11;79.71;101727.69;5000209;28;20054;-46
2023/05/02 09:27:52;;;;;;;9.10;4.95;;;;;;;15.11;79.14;101722.09;4998773;28;20060;-51
2023/05/02 09:30:22;;;;;;;6.70;4.72;;;;;;;15.44;79.69;101723.84;4940107;28;20145;-47
2023/05/02 09:32:51;;;;;;;9.35;4.53;;;;;;;16.15;78.31;101715.50;4986664;28;20074;-48
2023/05/02 09:35:24;;;;;;;4.95;4.35;;;;;;;16.95;76.53;101708.31;4992842;28;20054;-49
2023/05/02 09:38:00;;;;;;;8.43;4.90;;;;;;;17.82;74.93;101716.19;4991552;28;20054;-56
2023/05/02 09:40:29;;;;;;;7.80;4.47;;;;;;;18.44;73.63;101714.91;4983703;28;20054;-51
2023/05/02 09:42:55;;;;;;;8.80;4.53;;;;;;;18.68;72.19;101713.72;4987072;28;20426;-48
2023/05/02 09:45:24;;;;;;;8.80;4.38;;;;;;;19.11;70.84;101712.38;4964150;28;21045;-52
2023/05/02 09:47:51;;;;;;;7.65;4.18;;;;;;;19.64;69.05;101713.09;4979118;28;20068;-48
2023/05/02 09:50:37;;;;;;;9.20;3.60;;;;;;;20.14;68.62;101711.63;5000040;28;20096;-44
2023/05/02 09:53:08;;;;;;;9.57;4.63;;;;;;;20.22;67.14;101713.31;5006565;28;20077;-44
2023/05/02 09:55:35;;;;;;;9.30;4.93;;;;;;;20.25;65.98;101712.56;5004385;28;20057;-45
2023/05/02 09:58:02;;;;;;;8.43;4.90;;;;;;;20.26;65.02;101719.78;5004597;28;20054;-46
2023/05/02 10:00:43;;;;;;;7.20;3.50;;;;;;;20.13;65.04;101724.88;5006199;28;20062;-47
2023/05/02 10:03:14;;;;;;;7.22;3.55;;;;;;;19.67;63.95;101723.56;4989464;28;20145;-49
2023/05/02 10:05:43;;;;;;;7.35;3.92;;;;;;;19.36;64.37;101719.13;5003852;28;20041;-44
2023/05/02 10:08:10;;;;;;;7.03;3.38;;;;;;;19.40;63.75;101722.84;5005030;28;20053;-45
2023/05/02 10:10:39;;;;;;;5.63;4.90;;;;;;;19.83;63.08;101721.34;4997395;28;20051;-50
2023/05/02 10:13:07;;;;;;;7.60;4.50;;;;;;;20.01;61.89;101725.16;5002252;28;20058;-45
2023/05/02 10:15:41;;;;;;;8.27;3.80;;;;;;;19.79;62.21;101726.91;5004573;28;20046;-48
2023/05/02 10:18:14;;;;;;;7.57;3.90;;;;;;;19.95;62.32;101727.50;5005126;28;20108;-46
2023/05/02 10:21:03;;;;;;;5.60;3.40;;;;;;;20.18;61.23;101723.69;5004760;28;20054;-45
2023/05/02 10:23:30;;;;;;;5.55;4.03;;;;;;;20.31;60.55;101727.88;5001987;28;20061;-46
2023/05/02 10:25:58;;;;;;;9.63;3.72;;;;;;;20.40;60.29;101732.00;5004127;28;20415;-47
2023/05/02 10:28:27;;;;;;;9.65;4.15;;;;;;;20.39;59.82;101736.00;5004241;28;20491;-45
2023/05/02 10:30:53;;;;;;;8.32;3.45;;;;;;;20.34;59.85;101741.16;5000826;28;20053;-46
2023/05/02 10:33:22;;;;;;;7.88;3.70;;;;;;;20.20;60.29;101732.56;4998887;28;20050;-46
2023/05/02 10:35:49;;;;;;;7.15;3.80;;;;;;;20.15;60.30;101732.94;4998160;28;20060;-49
2023/05/02 10:38:20;;;;;;;8.15;3.70;;;;;;;20.12;60.68;101737.28;4991513;28;20098;-49
2023/05/02 10:40:56;;;;;;;7.68;4.03;;;;;;;20.02;61.25;101740.81;4990781;28;20487;-46
2023/05/02 10:43:27;;;;;;;11.48;4.07;;;;;;;20.13;60.56;101744.53;4989088;28;20108;-45
2023/05/02 10:45:53;;;;;;;5.68;4.20;;;;;;;20.07;60.61;101739.69;4982022;28;20061;-53
2023/05/02 10:48:26;;;;;;;5.32;4.03;;;;;;;19.73;61.49;101736.06;4990446;28;20143;-48
2023/05/02 10:51:00;;;;;;;6.20;4.10;;;;;;;19.15;62.02;101746.91;4988220;28;20822;-45
2023/05/02 10:53:38;;;;;;;6.82;4.28;;;;;;;18.70;63.11;101745.00;4990987;28;20742;-47
2023/05/02 10:56:14;;;;;;;6.65;4.38;;;;;;;18.38;63.65;101746.44;4963198;28;20069;-50
2023/05/02 10:58:42;;;;;;;6.30;3.67;;;;;;;18.08;64.03;101744.31;5002256;28;20046;-47
2023/05/02 11:01:28;;;;;;;8.02;4.07;;;;;;;17.93;64.30;101745.22;5005478;28;20156;-49
2023/05/02 11:03:58;;;;;;;8.35;4.82;;;;;;;17.94;64.64;101751.63;5001835;28;20181;-50
2023/05/02 11:06:29;;;;;;;10.75;4.50;;;;;;;17.90;64.83;101750.75;5004574;28;20088;-48
2023/05/02 11:09:21;;;;;;;7.25;4.93;;;;;;;18.01;64.96;101740.56;5003565;28;20053;-45
2023/05/02 11:11:51;;;;;;;8.55;4.22;;;;;;;18.07;65.10;101745.50;4998921;28;20112;-44
2023/05/02 11:14:24;;;;;;;10.20;5.40;;;;;;;18.16;65.05;101754.47;5001744;28;20046;-48
2023/05/02 11:16:58;;;;;;;7.53;4.75;;;;;;;18.08;65.31;101757.53;5004427;28;20061;-47
2023/05/02 11:19:27;;;;;;;6.53;4.10;;;;;;;17.90;65.49;101756.34;4993544;28;20046;-50
2023/05/02 11:22:19;;;;;;;10.15;5.47;;;;;;;17.73;65.99;101756.81;5002770;28;20038;-46
2023/05/02 11:24:47;;;;;;;8.13;5.03;;;;;;;17.60;66.54;101759.78;5003897;28;20085;-45
2023/05/02 11:30:05;;;;;;;10.05;6.10;;;;;;;17.21;66.88;101766.47;5000011;28;20045;-46
2023/05/02 11:32:52;;;;;;;10.93;6.28;;;;;;;17.08;67.45;101762.16;4992420;28;20050;-45
2023/05/02 11:35:26;;;;;;;9.25;6.00;;;;;;;17.10;67.50;101764.63;4985995;28;20053;-45
2023/05/02 11:37:53;;;;;;;11.15;5.95;;;;;;;17.00;67.66;101760.38;5003152;28;20054;-45